Hlavní strana
METAR-TAF:

METAR-TAF

Letiště :

Trollhättan-Vänersborg, Švédsko

zeměpisná šířka: 58-19N, zeměpisná délka: 012-21E, výška: 41 m

Aktuální stav počasí

Zpráva byla vytvořena před 26 minutami, v 12:50 UTC
Jihozápadní vítr 7 kt, proměnlivý mezi jižním a západojihozápadním
Teplota 12°C
Vlhkost vzduchu 62%
Tlak 1023 hPa
Viditelnost 10 km a více
Polojasno ve výšce 2900 ft

METAR: ESGT 191250Z 22007KT 180V240 9999 SCT029 12/05 Q1023

Čas: 15:16 (13:16 UTC)

Předpověď počasí

Zpráva byla vytvořena před 1 hodinou a 46 minutami, v 11:30 UTC
Předpověď platná od 19 v 12 UTC do 19 v 19 UTC
Jižní vítr 3 kt
Viditelnost 10 km a více
Žádná oblačnost pod 1500 m, nevyskytují se cumulonimby.

TAF: ESGT 191130Z 1912/1919 18003KT CAVOK

Stav a předpovědi počasí z více než 4 000 letišť (zprávy METAR a TAF).

Červené a žluté tečky na mapě představují dostupné meteorologické stanice.

Když kurzor umístíte na tečku, zobrazí se název stanice.

Pak kliknutím zobrazíte stav a předpověď počasí.

Chcete-li změnit mapu, kliknutím na zelené tlačítko se znaménkem +mapu přiblížíte, kliknutím na zelené tlačítko se znaménkem – mapu oddálíte a kliknutím na zelené šipky přejdete na sousední mapy.


METAR-TAF: